Data for 09/29/2009

Time Sea-Level Adjusted Pressure Absolute Pressure Temperature Relative Humidity Dew Point   
(mb) (inHg) (mb) (inHg) (C) (F) (%) (C) (F)
00:05 1011 29.85 840 24.81 14.1 57.5 25 -5.5 22.2
00:10 1011 29.85 840 24.81 14 57.2 26 -5.2 22.6
00:15 1010 29.83 840 24.81 13.8 56.8 26 -5.4 22.3
00:20 1011 29.85 840 24.81 13.7 56.6 26 -5.2 22.6
00:25 1010 29.83 839 24.78 13.6 56.5 26 -5.4 22.4
00:30 1010 29.83 839 24.78 13.6 56.5 26 -5.4 22.3
00:35 1010 29.83 839 24.78 13.6 56.4 27 -5.2 22.6
00:40 1010 29.83 839 24.78 13.6 56.4 26 -5.4 22.3
00:45 1010 29.83 839 24.78 13.5 56.3 27 -5.1 22.8
00:50 1010 29.83 839 24.78 13.4 56.1 27 -5.2 22.6
00:55 1010 29.83 839 24.78 13.2 55.8 27 -5.1 22.8
01:00 1010 29.83 839 24.78 13.1 55.5 28 -5.2 22.6
01:05 1010 29.83 839 24.78 13 55.4 28 -5.1 22.8
01:10 1010 29.83 839 24.78 13 55.4 28 -5.2 22.6
01:15 1010 29.83 839 24.78 13.1 55.6 27 -5.2 22.6
01:20 1010 29.83 839 24.78 13 55.4 28 -4.9 23.2
01:25 1010 29.83 839 24.78 12.9 55.1 28 -5.1 22.8
01:30 1010 29.83 839 24.78 12.9 55.3 28 -5.1 22.7
01:35 1010 29.83 839 24.78 12.9 55.3 28 -5.1 22.9
01:40 1010 29.83 839 24.78 12.9 55.3 28 -5.3 22.5
01:45 1010 29.83 839 24.78 13.2 55.7 27 -5.3 22.5
01:50 1010 29.83 839 24.78 13.2 55.8 28 -5 23
01:55 1010 29.83 839 24.78 13.3 56 27 -5.3 22.5
02:00 1010 29.83 839 24.78 13.5 56.3 27 -5.2 22.7
02:05 1010 29.83 839 24.78 13.5 56.2 27 -5.1 22.9
02:10 1010 29.83 839 24.78 13.6 56.5 26 -5.3 22.5
02:15 1010 29.83 839 24.78 13.8 56.9 26 -5.5 22.1
02:20 1010 29.83 839 24.78 14.1 57.4 26 -5.1 22.8
02:25 1010 29.83 839 24.78 14 57.3 26 -5.3 22.4
02:30 1010 29.83 839 24.78 14.2 57.6 25 -5.3 22.4
02:35 1010 29.83 839 24.78 14.4 58 25 -5.2 22.7
02:40 1010 29.83 839 24.78 14.5 58.1 25 -5.5 22.2
02:45 1010 29.83 839 24.78 14.8 58.6 24 -5.3 22.5
02:50 1009 29.8 839 24.78 14.7 58.5 24 -5.5 22.2
02:55 1009 29.8 839 24.78 14.7 58.5 25 -5.2 22.7
03:00 1009 29.8 839 24.78 14.7 58.4 25 -5.2 22.7
03:05 1009 29.8 839 24.78 14.8 58.6 24 -5.4 22.3
03:10 1009 29.8 839 24.78 14.7 58.5 25 -5.2 22.6
03:15 1009 29.8 839 24.78 14.8 58.7 24 -5.4 22.2
03:20 1009 29.8 839 24.78 15 59 24 -5.2 22.7
03:25 1009 29.8 839 24.78 15 59 24 -5.3 22.4
03:30 1009 29.8 839 24.78 15 59.1 24 -5.3 22.4
03:35 1009 29.8 838 24.75 14.8 58.7 25 -5.2 22.7
03:40 1009 29.8 838 24.75 14.7 58.5 25 -5.2 22.7
03:45 1009 29.8 838 24.75 14.7 58.4 24 -5.4 22.3
03:50 1009 29.8 838 24.75 14.8 58.6 24 -5.3 22.5
03:55 1009 29.8 838 24.75 14.6 58.3 25 -5.3 22.4
04:00 1009 29.8 838 24.75 14.6 58.3 25 -5.3 22.4
04:05 1009 29.8 838 24.75 14.9 58.8 24 -5.7 21.8
04:10 1009 29.8 838 24.75 15.2 59.3 24 -5.3 22.5
04:15 1009 29.8 838 24.75 15.4 59.8 23 -5.5 22.2
04:20 1009 29.8 838 24.75 15.5 59.8 23 -5.3 22.5
04:25 1009 29.8 838 24.75 15.2 59.4 24 -5.3 22.5
04:30 1009 29.8 838 24.75 15.1 59.1 24 -5 22.9
04:35 1009 29.8 838 24.75 14.9 58.9 24 -5.3 22.4
04:40 1009 29.8 838 24.75 15.1 59.2 24 -5.2 22.6
04:45 1009 29.8 838 24.75 15.1 59.1 24 -5.3 22.5
04:50 1009 29.8 838 24.75 15.2 59.4 23 -5.5 22.1
04:55 1009 29.8 838 24.75 15.3 59.6 24 -5.2 22.7
05:00 1009 29.8 838 24.75 15 59.1 24 -5.4 22.2
05:05 1009 29.8 838 24.75 15.1 59.3 23 -5.5 22
05:10 1009 29.8 838 24.75 15.4 59.8 23 -5.5 22.1
05:15 1009 29.8 838 24.75 15.4 59.7 23 -5.4 22.2
05:20 1009 29.8 838 24.75 15.7 60.2 23 -5.6 21.9
05:25 1009 29.8 838 24.75 15.7 60.2 22 -5.7 21.7
05:30 1009 29.8 838 24.75 15.8 60.5 22 -5.7 21.7
05:35 1009 29.8 838 24.75 15.9 60.7 22 -5.6 21.8
05:40 1009 29.8 838 24.75 15.9 60.6 22 -5.8 21.6
05:45 1009 29.8 838 24.75 15.8 60.4 22 -5.5 22.1
05:50 1009 29.8 838 24.75 15.5 59.9 23 -5.5 22.2
05:55 1009 29.8 838 24.75 15.5 60 23 -5.4 22.3
06:00 1009 29.8 838 24.75 15.4 59.7 23 -5.6 21.9
06:05 1009 29.8 838 24.75 15.5 59.8 22 -5.9 21.5
06:10 1009 29.8 838 24.75 15.5 59.9 24 -5.1 22.9
06:15 1009 29.8 838 24.75 15.3 59.6 25 -4.7 23.5
06:20 1009 29.8 838 24.75 14.9 58.9 24 -5.4 22.3
06:25 1009 29.8 838 24.75 15.1 59.2 23 -5.6 21.8
06:30 1009 29.8 838 24.75 15.3 59.5 23 -5.5 22.2
06:35 1009 29.8 838 24.75 15.3 59.5 23 -5.7 21.7
06:40 1009 29.8 838 24.75 15.4 59.7 23 -5.5 22
06:45 1009 29.8 838 24.75 15.4 59.8 22 -5.8 21.5
06:50 1009 29.8 838 24.75 15.5 60 23 -5.5 22
06:55 1009 29.8 838 24.75 15.2 59.4 23 -5.4 22.2
07:00 1009 29.8 838 24.75 15.2 59.4 24 -5.4 22.2
07:05 1009 29.8 838 24.75 15.3 59.5 24 -5.2 22.6
07:10 1009 29.8 838 24.75 15.8 60.4 22 -5.9 21.5
07:15 1009 29.8 838 24.75 15.7 60.3 24 -4.9 23.2
07:20 1009 29.8 838 24.75 15.7 60.2 23 -5.1 22.9
07:25 1009 29.8 838 24.75 15.8 60.4 21 -6.5 20.4
07:30 1009 29.8 838 24.75 16.1 61 21 -6.1 21.1
07:35 1009 29.8 838 24.75 16 60.7 22 -5.7 21.8
07:40 1009 29.8 838 24.75 15.9 60.7 22 -5.6 21.9
07:45 1009 29.8 838 24.75 15.6 60.2 26 -3.9 24.9
07:50 1009 29.8 839 24.78 15.1 59.2 25 -4.8 23.4
07:55 1009 29.8 839 24.78 14.7 58.4 26 -4.7 23.6
08:00 1009 29.8 839 24.78 14.6 58.2 26 -4.8 23.3
08:05 1010 29.83 839 24.78 14.6 58.3 25 -5 22.9
08:10 1010 29.83 839 24.78 14.7 58.5 26 -4.6 23.8
08:15 1010 29.83 839 24.78 14.9 58.8 29 -2.7 27.2
08:20 1010 29.83 839 24.78 14.4 57.8 28 -3.8 25.2
08:25 1010 29.83 839 24.78 14 57.1 28 -4 24.8
08:30 1010 29.83 839 24.78 13.6 56.4 30 -3.8 25.2
08:35 1010 29.83 839 24.78 13.3 55.9 32 -2.9 26.7
08:40 1010 29.83 839 24.78 12.7 54.9 33 -3.2 26.2
08:45 1010 29.83 839 24.78 13.2 55.7 32 -3.3 26.1
08:50 1010 29.83 840 24.81 13.7 56.7 30 -3.5 25.8
08:55 1010 29.83 840 24.81 13.7 56.6 32 -2.6 27.3
09:00 1010 29.83 840 24.81 14.2 57.6 30 -2.9 26.8
09:05 1010 29.83 840 24.81 14.4 58 29 -3.5 25.8
09:10 1011 29.85 840 24.81 15.1 59.1 28 -3.3 26.1
09:15 1011 29.85 840 24.81 15.5 59.8 28 -2.7 27.1
09:20 1011 29.85 840 24.81 16 60.8 28 -2.2 28
09:25 1011 29.85 840 24.81 16.3 61.4 28 -2 28.4
09:30 1011 29.85 840 24.81 16.2 61.2 29 -1.8 28.8
09:35 1011 29.85 840 24.81 16.4 61.6 29 -1.4 29.4
09:40 1011 29.85 840 24.81 16.5 61.7 27 -2.5 27.5
09:45 1010 29.83 840 24.81 16.6 61.8 28 -2.1 28.3
09:50 1010 29.83 840 24.81 17 62.6 29 -1.3 29.7
09:55 1010 29.83 840 24.81 17.8 64.1 28 -0.7 30.7
10:00 1010 29.83 840 24.81 18.6 65.4 27 -0.7 30.8
10:05 1010 29.83 840 24.81 19.1 66.3 26 -0.6 30.9
10:10 1010 29.83 840 24.81 19.3 66.8 24 -1.4 29.4
10:15 1010 29.83 840 24.81 20.1 68.1 24 -0.9 30.3
10:20 1010 29.83 840 24.81 20.1 68.1 24 -0.8 30.6
10:25 1010 29.83 840 24.81 20.2 68.4 22 -2.3 27.8
10:30 1010 29.83 840 24.81 21.2 70.1 21 -2.1 28.3
10:35 1010 29.83 840 24.81 21.6 70.9 19 -2.7 27.1
10:40 1010 29.83 840 24.81 21.6 70.9 18 -3.7 25.4
10:45 1010 29.83 840 24.81 21.5 70.7 20 -2.3 27.9
10:50 1010 29.83 840 24.81 22.2 72 19 -2.4 27.7
10:55 1010 29.83 840 24.81 22.7 72.8 18 -2.8 26.9
11:00 1010 29.83 840 24.81 22.8 73 18 -2.8 27
11:05 1010 29.83 840 24.81 23.6 74.4 16 -3.3 26
11:10 1010 29.83 839 24.78 22.9 73.3 18 -2.5 27.6
11:15 1010 29.83 839 24.78 23.5 74.2 18 -2 28.3
11:20 1010 29.83 839 24.78 22.7 72.8 19 -2.1 28.2
11:25 1010 29.83 839 24.78 23.3 74 18 -2.2 28
11:30 1010 29.83 839 24.78 23.5 74.2 18 -2.4 27.7
11:35 1010 29.83 839 24.78 23.1 73.5 18 -2.4 27.8
11:40 1010 29.83 839 24.78 23.2 73.8 15 -4.6 23.7
11:45 1010 29.83 839 24.78 23.2 73.7 16 -3.9 24.9
11:50 1010 29.83 839 24.78 23.4 74.1 17 -3 26.6
11:55 1010 29.83 839 24.78 23.8 74.8 15 -4.2 24.5
12:00 1010 29.83 839 24.78 24.7 76.4 15 -3.9 25
12:05 1010 29.83 839 24.78 25.1 77.2 13 -4.5 23.8
12:10 1010 29.83 839 24.78 25.7 78.2 13 -4.4 24.1
12:15 1010 29.83 839 24.78 25.6 78.1 14 -3.7 25.3
12:20 1010 29.83 839 24.78 24.7 76.4 15 -3.9 25
12:25 1009 29.8 839 24.78 24.4 75.9 14 -4.9 23.2
12:30 1009 29.8 839 24.78 24.6 76.3 14 -4.5 24
12:35 1009 29.8 838 24.75 24.4 76 15 -3.9 25
12:40 1009 29.8 838 24.75 24.7 76.5 14 -4.4 24
12:45 1009 29.8 838 24.75 25.1 77.2 14 -4.1 24.6
12:50 1009 29.8 838 24.75 25 77 14 -3.9 25.1
12:55 1009 29.8 838 24.75 24.6 76.2 14 -4.4 24
13:00 1009 29.8 838 24.75 24.2 75.5 15 -3.5 25.8
13:05 1009 29.8 838 24.75 24.1 75.3 15 -3.6 25.4
13:10 1009 29.8 838 24.75 23.9 75 19 -1.2 29.8
13:15 1009 29.8 838 24.75 24.8 76.6 13 -5 23.1
13:20 1009 29.8 838 24.75 25.7 78.3 13 -4.3 24.3
13:25 1009 29.8 838 24.75 26.2 79.1 13 -4.1 24.6
13:30 1009 29.8 838 24.75 26.4 79.6 13 -4 24.8
13:35 1009 29.8 838 24.75 26.4 79.5 13 -3.7 25.4
13:40 1008 29.77 838 24.75 25.7 78.2 14 -4 24.8
13:45 1008 29.77 838 24.75 25.3 77.5 14 -3.7 25.4
13:50 1008 29.77 838 24.75 25.3 77.5 14 -3.9 25
13:55 1008 29.77 837 24.72 25.1 77.2 14 -4.4 24
14:00 1008 29.77 837 24.72 25.3 77.5 14 -4.1 24.7
14:05 1008 29.77 837 24.72 25.5 77.9 14 -3.5 25.6
14:10 1008 29.77 837 24.72 25.6 78 14 -3.9 24.9
14:15 1008 29.77 837 24.72 25.5 77.8 14 -3.7 25.4
14:20 1008 29.77 837 24.72 25.3 77.6 14 -4.2 24.4
14:25 1008 29.77 837 24.72 25 77 14 -3.9 25
14:30 1008 29.77 837 24.72 24.8 76.7 14 -3.9 25
14:35 1008 29.77 837 24.72 24.5 76 14 -4.1 24.6
14:40 1008 29.77 837 24.72 24.6 76.2 14 -4.3 24.2
14:45 1008 29.77 837 24.72 24.5 76.1 14 -4.3 24.3
14:50 1008 29.77 837 24.72 24.4 75.9 15 -3.8 25.2
14:55 1008 29.77 837 24.72 24.4 76 15 -3.7 25.3
15:00 1008 29.77 837 24.72 24.5 76.2 15 -4 24.8
15:05 1008 29.77 837 24.72 24.7 76.5 15 -3.6 25.6
15:10 1008 29.77 837 24.72 25.3 77.6 14 -3.6 25.5
15:15 1008 29.77 837 24.72 24.9 76.9 15 -3.6 25.6
15:20 1008 29.77 837 24.72 25 76.9 15 -3.4 25.8
15:25 1008 29.77 837 24.72 25.1 77.2 14 -3.7 25.3
15:30 1008 29.77 837 24.72 24.8 76.7 14 -4 24.8
15:35 1008 29.77 837 24.72 24.7 76.5 15 -3.7 25.4
15:40 1008 29.77 837 24.72 24.8 76.6 14 -3.9 25
15:45 1008 29.77 837 24.72 24.4 76 15 -3.7 25.3
15:50 1008 29.77 837 24.72 24.5 76.1 15 -3.6 25.5
15:55 1008 29.77 837 24.72 24.5 76.2 15 -3.8 25.2
16:00 1008 29.77 837 24.72 24.5 76.2 15 -3.9 25
16:05 1008 29.77 837 24.72 24.3 75.7 15 -4 24.8
16:10 1008 29.77 837 24.72 24.1 75.3 15 -3.9 25.1
16:15 1008 29.77 837 24.72 24.1 75.3 15 -3.8 25.1
16:20 1008 29.77 837 24.72 24.1 75.3 15 -4.3 24.3
16:25 1007 29.74 837 24.72 23.9 74.9 15 -4.2 24.5
16:30 1008 29.77 837 24.72 23.8 74.9 15 -4.1 24.6
16:35 1008 29.77 837 24.72 24 75.2 15 -4.1 24.6
16:40 1007 29.74 837 24.72 24.2 75.5 15 -3.8 25.2
16:45 1007 29.74 837 24.72 24 75.2 15 -3.6 25.5
16:50 1007 29.74 837 24.72 23.9 75 15 -3.8 25.1
16:55 1007 29.74 837 24.72 23.7 74.6 16 -3.5 25.6
17:00 1007 29.74 837 24.72 23.7 74.6 16 -3.1 26.4
17:05 1007 29.74 837 24.72 23.7 74.6 15 -3.9 25
17:10 1007 29.74 837 24.72 23.7 74.7 17 -2.7 27.1
17:15 1007 29.74 837 24.72 23.8 74.9 16 -2.9 26.7
17:20 1007 29.74 837 24.72 23.7 74.7 17 -2.7 27.1
17:25 1007 29.74 837 24.72 23.7 74.7 16 -3.4 26
17:30 1007 29.74 836 24.69 23.6 74.5 18 -2.2 28.1
17:35 1007 29.74 836 24.69 23.4 74.1 17 -3 26.7
17:40 1007 29.74 837 24.72 23.5 74.3 18 -1.7 28.9
17:45 1007 29.74 837 24.72 23.5 74.4 18 -1.8 28.8
17:50 1007 29.74 836 24.69 23.4 74.2 17 -2.7 27.2
17:55 1007 29.74 836 24.69 23.4 74.1 18 -2.4 27.6
18:00 1007 29.74 837 24.72 23.5 74.3 19 -1.5 29.3
18:05 1007 29.74 836 24.69 23.4 74.1 19 -1.1 30
18:10 1007 29.74 836 24.69 23 73.3 19 -1.4 29.4
18:15 1007 29.74 836 24.69 22.7 72.8 20 -1.2 29.8
18:20 1007 29.74 836 24.69 22.5 72.5 21 -1 30.1
18:25 1007 29.74 836 24.69 22.2 72 19 -2.3 27.8
18:30 1007 29.74 836 24.69 21.8 71.3 20 -2.2 28.1
18:35 1007 29.74 836 24.69 21.6 70.9 20 -2.1 28.2
18:40 1007 29.74 836 24.69 21.4 70.5 20 -2.5 27.6
18:45 1007 29.74 836 24.69 21.3 70.3 20 -2.3 27.8
18:50 1007 29.74 836 24.69 21.2 70.1 20 -2.4 27.7
18:55 1007 29.74 836 24.69 21.1 70 20 -2.3 27.9
19:00 1007 29.74 836 24.69 20.9 69.7 21 -1.8 28.8
19:05 1007 29.74 836 24.69 20.6 69.2 22 -1.9 28.5
19:10 1007 29.74 836 24.69 20.3 68.5 22 -1.9 28.6
19:15 1007 29.74 836 24.69 20 68 23 -1.7 29
19:20 1007 29.74 837 24.72 19.8 67.6 24 -1.4 29.5
19:25 1007 29.74 837 24.72 19.6 67.3 24 -1.4 29.5
19:30 1007 29.74 837 24.72 19.3 66.7 25 -1 30.2
19:35 1008 29.77 837 24.72 18.8 65.8 26 -1.1 29.9
19:40 1008 29.77 837 24.72 18.6 65.4 25 -1.5 29.4
19:45 1008 29.77 837 24.72 18.7 65.6 26 -1.3 29.7
19:50 1008 29.77 837 24.72 18.8 65.8 25 -1.6 29.2
19:55 1008 29.77 837 24.72 18.9 66 25 -1.5 29.3
20:00 1008 29.77 837 24.72 19 66.2 25 -1.4 29.6
20:05 1008 29.77 837 24.72 19 66.1 25 -1.4 29.4
20:10 1008 29.77 837 24.72 18.9 66 26 -0.9 30.4
20:15 1008 29.77 837 24.72 18.8 65.9 25 -1.2 29.8
20:20 1008 29.77 837 24.72 18.7 65.6 26 -1.3 29.6
20:25 1008 29.77 837 24.72 18.6 65.5 26 -0.9 30.4
20:30 1008 29.77 837 24.72 18.5 65.2 27 -0.9 30.5
20:35 1008 29.77 837 24.72 18.4 65 28 -0.4 31.3
20:40 1008 29.77 837 24.72 18.2 64.8 28 -0.6 31
20:45 1008 29.77 837 24.72 18.2 64.7 28 -0.6 31
20:50 1008 29.77 837 24.72 18.1 64.5 29 -0.3 31.4
20:55 1008 29.77 837 24.72 18 64.3 27 -1 30.1
21:00 1008 29.77 837 24.72 18 64.3 28 -0.5 31
21:05 1008 29.77 837 24.72 17.9 64.1 29 -0.5 31.1
21:10 1008 29.77 837 24.72 17.6 63.7 30 -0 32
21:15 1008 29.77 837 24.72 16.7 62 31 -0.2 31.6
21:20 1007 29.74 837 24.72 16.4 61.6 31 -0.7 30.7
21:25 1007 29.74 837 24.72 16.7 62.1 31 -0.5 31.1
21:30 1007 29.74 837 24.72 16.7 62.1 31 -0.4 31.3
21:35 1007 29.74 836 24.69 16.7 62.1 31 -0.5 31
21:40 1007 29.74 836 24.69 16.5 61.6 32 -0.2 31.7
21:45 1007 29.74 836 24.69 16.3 61.3 31 -0.7 30.8
21:50 1007 29.74 836 24.69 16.3 61.3 31 -0.6 30.9
21:55 1007 29.74 836 24.69 16.2 61.2 32 -0.5 31.1
22:00 1007 29.74 836 24.69 15.7 60.2 33 -0.3 31.4
22:05 1007 29.74 836 24.69 15.2 59.4 33 -0.6 30.8
22:10 1007 29.74 836 24.69 15.2 59.4 33 -0.7 30.7
22:15 1007 29.74 836 24.69 15.3 59.5 33 -0.6 30.9
22:20 1007 29.74 836 24.69 15.2 59.4 34 -0.4 31.3
22:25 1007 29.74 836 24.69 15.1 59.2 35 -0.3 31.4
22:30 1007 29.74 836 24.69 15.1 59.1 35 -0.2 31.7
22:35 1007 29.74 836 24.69 14.9 58.9 36 0 32
22:40 1007 29.74 836 24.69 14.8 58.6 36 0 32
22:45 1007 29.74 836 24.69 14.7 58.5 37 0.2 32.3
22:50 1007 29.74 836 24.69 14.6 58.3 37 0.2 32.3
22:55 1007 29.74 836 24.69 14.4 58 38 0.5 32.8
23:00 1007 29.74 836 24.69 13.9 57.1 39 0.4 32.7
23:05 1007 29.74 836 24.69 13.8 56.8 40 0.5 32.9
23:10 1007 29.74 836 24.69 13.5 56.3 41 0.6 33.1
23:15 1007 29.74 836 24.69 13.4 56 42 0.7 33.2
23:20 1007 29.74 836 24.69 13.3 55.9 43 0.9 33.7
23:25 1007 29.74 836 24.69 13.1 55.7 43 1 33.9
23:30 1007 29.74 836 24.69 13.1 55.7 43 0.9 33.5
23:35 1007 29.74 836 24.69 13.2 55.8 42 0.7 33.3
23:40 1007 29.74 836 24.69 13.2 55.8 42 0.7 33.2
23:45 1007 29.74 836 24.69 13.4 56.1 42 0.7 33.2
23:50 1006 29.71 836 24.69 13.5 56.3 41 0.7 33.2
23:55 1006 29.71 836 24.69 13.6 56.5 41 0.8 33.5
24:00 1006 29.71 836 24.69 13.8 56.8 42 1 33.8